Time;durP1;ratioP1;P1;durP2;ratioP2;P2;SDS_P1;SDS_P2;PMS_P1;PMS_P2;Temp;Humidity;BMP_temperature;BMP_pressure;BME280_temperature;BME280_humidity;BME280_pressure;Samples;Min_cycle;Max_cycle;Signal;HPM_P1;HPM_P2
2021/10/10 00:02:05;;;;;;;20.42;9.75;;;7.60;82.00;;;;;;5053989;28;20044;-68
2021/10/10 00:04:32;;;;;;;14.85;10.25;;;7.50;82.20;;;;;;5051988;28;20041;-68
2021/10/10 00:06:57;;;;;;;14.48;9.25;;;7.50;82.30;;;;;;5048296;28;20064;-68
2021/10/10 00:09:23;;;;;;;16.10;9.23;;;7.40;82.20;;;;;;5053009;28;20048;-68
2021/10/10 00:11:49;;;;;;;15.57;9.57;;;7.40;82.30;;;;;;5051825;28;20033;-68
2021/10/10 00:14:16;;;;;;;16.38;10.63;;;7.30;82.30;;;;;;5052053;28;21018;-68
2021/10/10 00:16:42;;;;;;;18.58;10.90;;;7.30;82.60;;;;;;5051039;28;20040;-68
2021/10/10 00:19:07;;;;;;;17.50;10.35;;;7.30;82.40;;;;;;5050713;28;20032;-68
2021/10/10 00:21:33;;;;;;;19.85;10.45;;;7.30;82.50;;;;;;5051612;28;20048;-68
2021/10/10 00:23:59;;;;;;;19.20;9.98;;;7.20;82.80;;;;;;5050224;28;20039;-68
2021/10/10 00:26:25;;;;;;;16.63;9.82;;;7.20;83.20;;;;;;5050898;28;20563;-68
2021/10/10 00:28:50;;;;;;;18.70;10.55;;;7.20;83.30;;;;;;5050474;28;20028;-68
2021/10/10 00:31:16;;;;;;;14.60;9.15;;;7.10;83.50;;;;;;5052074;28;20037;-68
2021/10/10 00:33:41;;;;;;;15.50;9.35;;;7.10;83.70;;;;;;5048436;28;20024;-68
2021/10/10 00:36:07;;;;;;;16.90;9.40;;;7.10;83.60;;;;;;5054057;28;20527;-68
2021/10/10 00:38:33;;;;;;;14.93;9.30;;;7.10;83.50;;;;;;5048252;28;20037;-68
2021/10/10 00:40:59;;;;;;;16.02;8.98;;;7.10;83.20;;;;;;5051488;28;20846;-68
2021/10/10 00:43:24;;;;;;;18.85;8.95;;;7.10;82.90;;;;;;5046794;28;20091;-68
2021/10/10 00:45:51;;;;;;;17.13;9.77;;;7.10;82.80;;;;;;5051163;28;20523;-67
2021/10/10 00:48:18;;;;;;;16.92;9.90;;;7.00;83.10;;;;;;5051958;28;20033;-67
2021/10/10 00:50:44;;;;;;;19.70;10.02;;;7.00;83.30;;;;;;5049646;28;20330;-68
2021/10/10 00:53:14;;;;;;;17.00;9.32;;;7.00;83.20;;;;;;5051726;28;20036;-69
2021/10/10 00:55:41;;;;;;;17.73;10.35;;;7.00;83.20;;;;;;5056434;28;20032;-68
2021/10/10 00:58:07;;;;;;;16.48;9.35;;;7.00;83.40;;;;;;5053325;28;20032;-69
2021/10/10 01:00:32;;;;;;;17.83;9.63;;;7.00;83.30;;;;;;5052312;28;20582;-68
2021/10/10 01:02:59;;;;;;;22.63;10.82;;;7.00;83.30;;;;;;5050179;28;20036;-70
2021/10/10 01:05:25;;;;;;;17.92;9.57;;;7.00;83.50;;;;;;5047851;28;20029;-68
2021/10/10 01:07:52;;;;;;;21.98;10.77;;;6.90;83.30;;;;;;5049476;28;20020;-69
2021/10/10 01:10:19;;;;;;;17.88;9.40;;;7.00;83.20;;;;;;5052162;28;20526;-69
2021/10/10 01:12:46;;;;;;;18.25;9.25;;;7.00;83.50;;;;;;5048286;28;20045;-68
2021/10/10 01:15:12;;;;;;;17.42;10.27;;;6.90;83.40;;;;;;5047760;28;20030;-68
2021/10/10 01:17:38;;;;;;;14.00;8.38;;;6.90;83.70;;;;;;5049775;28;20037;-72
2021/10/10 01:20:07;;;;;;;20.40;9.38;;;6.90;84.10;;;;;;5047629;28;20037;-69
2021/10/10 01:22:33;;;;;;;20.23;9.73;;;6.90;84.20;;;;;;5047793;28;20408;-70
2021/10/10 01:24:58;;;;;;;17.33;9.85;;;6.80;84.50;;;;;;5050079;28;20044;-69
2021/10/10 01:27:24;;;;;;;19.60;10.43;;;6.90;84.30;;;;;;5052222;28;20025;-69
2021/10/10 01:29:51;;;;;;;18.27;11.23;;;6.90;84.00;;;;;;5049854;28;20041;-69
2021/10/10 01:32:16;;;;;;;17.00;10.02;;;7.00;83.20;;;;;;5050924;28;20086;-70
2021/10/10 01:34:44;;;;;;;15.32;8.80;;;7.00;83.30;;;;;;5048738;28;20028;-68
2021/10/10 01:37:11;;;;;;;15.02;8.80;;;6.90;83.00;;;;;;5051500;28;20060;-74
2021/10/10 01:39:36;;;;;;;17.20;9.77;;;6.90;83.20;;;;;;5042968;28;20690;-68
2021/10/10 01:42:02;;;;;;;18.83;9.90;;;6.80;82.80;;;;;;5048360;28;20120;-66
2021/10/10 01:44:28;;;;;;;16.00;9.20;;;6.90;83.10;;;;;;5051397;28;20602;-72
2021/10/10 01:46:54;;;;;;;15.57;9.30;;;6.80;82.90;;;;;;5031030;28;20040;-65
2021/10/10 01:49:20;;;;;;;16.45;9.13;;;6.80;83.00;;;;;;5045709;28;20033;-69
2021/10/10 01:51:45;;;;;;;16.60;9.57;;;6.70;83.30;;;;;;5050318;28;20098;-74
2021/10/10 01:54:11;;;;;;;16.92;10.00;;;6.70;83.80;;;;;;5048216;28;20037;-68
2021/10/10 01:56:37;;;;;;;19.48;9.88;;;6.70;84.20;;;;;;5049109;28;20207;-75
2021/10/10 01:59:02;;;;;;;16.88;8.80;;;6.60;84.40;;;;;;5049854;28;20036;-68
2021/10/10 02:01:28;;;;;;;20.00;9.82;;;6.60;84.50;;;;;;5048439;28;20408;-70
2021/10/10 02:03:55;;;;;;;16.10;9.13;;;6.70;84.30;;;;;;5048908;28;20107;-67
2021/10/10 02:06:21;;;;;;;19.17;9.43;;;6.70;84.00;;;;;;5049478;28;20095;-67
2021/10/10 02:08:47;;;;;;;16.05;9.23;;;6.60;84.20;;;;;;5046808;28;20074;-67
2021/10/10 02:11:13;;;;;;;16.80;9.68;;;6.60;84.00;;;;;;5049601;28;20021;-66
2021/10/10 02:13:42;;;;;;;17.52;9.38;;;6.60;83.70;;;;;;5051322;28;20693;-67
2021/10/10 02:16:08;;;;;;;17.38;10.27;;;6.60;83.40;;;;;;5061962;28;20051;-67
2021/10/10 02:18:35;;;;;;;18.23;9.50;;;6.60;83.40;;;;;;5048391;28;20032;-67
2021/10/10 02:21:01;;;;;;;18.48;10.00;;;6.50;84.20;;;;;;5046239;28;20070;-67
2021/10/10 02:23:27;;;;;;;15.85;9.52;;;6.50;84.80;;;;;;5049463;28;20036;-66
2021/10/10 02:25:53;;;;;;;15.68;10.02;;;6.50;85.50;;;;;;5049859;28;20029;-67
2021/10/10 02:28:19;;;;;;;16.95;9.23;;;6.50;85.60;;;;;;5047835;28;20036;-66
2021/10/10 02:30:49;;;;;;;17.00;9.25;;;6.50;85.20;;;;;;5050243;28;20102;-66
2021/10/10 02:33:17;;;;;;;17.35;9.35;;;6.50;85.00;;;;;;5049731;28;20568;-66
2021/10/10 02:35:43;;;;;;;17.40;10.13;;;6.50;84.80;;;;;;5046542;28;20055;-67
2021/10/10 02:38:10;;;;;;;15.57;9.18;;;6.50;84.30;;;;;;5049273;28;20428;-66
2021/10/10 02:40:37;;;;;;;17.38;10.27;;;6.50;83.60;;;;;;5050934;28;20048;-67
2021/10/10 02:43:03;;;;;;;19.73;10.00;;;6.50;83.30;;;;;;5052957;28;20037;-67
2021/10/10 02:45:29;;;;;;;15.50;9.90;;;6.40;83.20;;;;;;5037567;28;20075;-66
2021/10/10 02:47:55;;;;;;;21.48;10.43;;;6.30;83.30;;;;;;5054169;28;20028;-66
2021/10/10 02:50:21;;;;;;;16.63;10.10;;;6.30;83.30;;;;;;5053839;28;20032;-67
2021/10/10 02:52:47;;;;;;;17.80;9.88;;;6.30;83.50;;;;;;5054272;28;20064;-70
2021/10/10 02:55:12;;;;;;;18.90;10.45;;;6.20;83.90;;;;;;5059775;28;20032;-67
2021/10/10 02:57:38;;;;;;;18.85;10.57;;;6.20;84.20;;;;;;5047647;28;20488;-66
2021/10/10 03:00:05;;;;;;;17.25;10.02;;;6.10;85.00;;;;;;5053148;28;20132;-66
2021/10/10 03:02:31;;;;;;;18.50;10.13;;;6.10;85.40;;;;;;5033870;28;20045;-66
2021/10/10 03:04:57;;;;;;;19.13;10.70;;;6.10;85.10;;;;;;5054786;28;20029;-66
2021/10/10 03:07:23;;;;;;;23.85;11.02;;;6.10;84.30;;;;;;5051277;28;20480;-66
2021/10/10 03:09:48;;;;;;;19.35;10.13;;;6.00;85.30;;;;;;5054542;28;20032;-66
2021/10/10 03:12:14;;;;;;;16.45;10.38;;;6.00;84.80;;;;;;5049486;28;20028;-66
2021/10/10 03:14:40;;;;;;;20.55;10.88;;;6.00;85.00;;;;;;5051894;28;20094;-66
2021/10/10 03:17:06;;;;;;;20.75;11.48;;;6.00;85.30;;;;;;5054380;28;20041;-66
2021/10/10 03:19:31;;;;;;;18.63;11.07;;;5.90;85.80;;;;;;5051871;28;20040;-66
2021/10/10 03:21:57;;;;;;;20.50;11.13;;;5.90;86.30;;;;;;5053245;28;20029;-66
2021/10/10 03:24:23;;;;;;;18.75;11.02;;;5.90;86.30;;;;;;5054059;28;20465;-66
2021/10/10 03:26:48;;;;;;;20.02;11.13;;;6.00;86.50;;;;;;5054454;28;20028;-66
2021/10/10 03:29:14;;;;;;;21.60;11.43;;;5.90;86.20;;;;;;5050062;28;20044;-66
2021/10/10 03:31:39;;;;;;;18.35;10.63;;;6.00;86.50;;;;;;5055058;28;20044;-66
2021/10/10 03:34:05;;;;;;;20.50;11.52;;;5.90;86.60;;;;;;5053436;28;20036;-66
2021/10/10 03:36:31;;;;;;;20.75;12.07;;;6.00;86.60;;;;;;5053463;28;20032;-66
2021/10/10 03:38:57;;;;;;;18.92;11.30;;;6.00;86.60;;;;;;5052571;28;20033;-66
2021/10/10 03:41:22;;;;;;;19.58;11.05;;;6.00;86.60;;;;;;5053879;28;20037;-66
2021/10/10 03:43:48;;;;;;;22.45;11.95;;;6.00;86.60;;;;;;5052008;28;20048;-66
2021/10/10 03:46:14;;;;;;;20.98;10.57;;;6.00;86.60;;;;;;5053150;28;20032;-66
2021/10/10 03:48:40;;;;;;;22.60;11.80;;;6.00;85.90;;;;;;5053387;28;20245;-66
2021/10/10 03:51:05;;;;;;;20.60;11.25;;;6.00;86.60;;;;;;5053865;28;20800;-66
2021/10/10 03:56:20;;;;;;;20.80;11.35;;;5.90;86.10;;;;;;5034954;28;20202;-66
2021/10/10 03:58:45;;;;;;;24.67;12.07;;;5.90;86.10;;;;;;5052515;28;20893;-66
2021/10/10 04:01:11;;;;;;;20.92;10.90;;;5.90;86.10;;;;;;5054050;28;20139;-66
2021/10/10 04:03:37;;;;;;;22.20;11.93;;;5.80;86.10;;;;;;5053051;28;20093;-66
2021/10/10 04:06:03;;;;;;;20.23;11.30;;;5.90;86.50;;;;;;5053969;28;20045;-66
2021/10/10 04:08:30;;;;;;;19.00;10.85;;;5.80;86.70;;;;;;5055092;28;20025;-66
2021/10/10 04:10:56;;;;;;;23.08;11.50;;;5.80;86.80;;;;;;5052918;28;20070;-66
2021/10/10 04:13:22;;;;;;;23.23;12.52;;;5.80;86.90;;;;;;5052790;28;20064;-66
2021/10/10 04:15:48;;;;;;;20.05;11.18;;;5.80;86.70;;;;;;5051478;28;20632;-66
2021/10/10 04:18:13;;;;;;;22.65;11.63;;;5.80;86.90;;;;;;5053734;28;20057;-66
2021/10/10 04:20:39;;;;;;;20.58;11.85;;;5.70;87.40;;;;;;5052020;28;20397;-66
2021/10/10 04:23:05;;;;;;;20.05;11.48;;;5.80;87.40;;;;;;5056341;28;20036;-66
2021/10/10 04:25:31;;;;;;;20.88;12.20;;;5.80;87.10;;;;;;5066659;28;20408;-66
2021/10/10 04:27:56;;;;;;;20.35;11.50;;;5.80;86.70;;;;;;5050517;28;20036;-65
2021/10/10 04:30:22;;;;;;;19.73;11.35;;;5.80;86.50;;;;;;5056936;28;20043;-66
2021/10/10 04:32:48;;;;;;;21.23;11.75;;;5.70;86.60;;;;;;5054987;28;20060;-66
2021/10/10 04:35:14;;;;;;;24.10;11.98;;;5.70;86.60;;;;;;5061068;28;20086;-66
2021/10/10 04:37:41;;;;;;;22.50;11.43;;;5.70;87.20;;;;;;5051391;28;20067;-66
2021/10/10 04:40:07;;;;;;;23.05;11.60;;;5.70;87.20;;;;;;5060489;28;20090;-66
2021/10/10 04:42:34;;;;;;;20.38;11.65;;;5.60;86.90;;;;;;5063324;28;20156;-66
2021/10/10 04:45:00;;;;;;;21.98;11.15;;;5.60;87.30;;;;;;5057580;28;20031;-66
2021/10/10 04:47:26;;;;;;;22.98;11.88;;;5.60;86.90;;;;;;5068297;28;20028;-66
2021/10/10 04:49:52;;;;;;;27.15;13.02;;;5.50;87.30;;;;;;5059272;28;20031;-66
2021/10/10 04:52:17;;;;;;;22.80;11.82;;;5.60;87.50;;;;;;5053908;28;20695;-66
2021/10/10 04:54:47;;;;;;;22.38;12.00;;;5.60;87.40;;;;;;5060899;28;20036;-66
2021/10/10 04:57:13;;;;;;;22.38;11.20;;;5.60;87.30;;;;;;5058287;28;20771;-67
2021/10/10 04:59:39;;;;;;;24.58;12.95;;;5.60;87.20;;;;;;5058248;28;20041;-67
2021/10/10 05:02:05;;;;;;;21.73;11.27;;;5.60;87.20;;;;;;5061469;28;20036;-67
2021/10/10 05:04:30;;;;;;;26.90;13.10;;;5.60;87.40;;;;;;5057466;28;20064;-67
2021/10/10 05:06:56;;;;;;;20.92;12.77;;;5.60;87.50;;;;;;5058420;28;20071;-67
2021/10/10 05:09:22;;;;;;;22.75;12.38;;;5.50;88.00;;;;;;5059492;28;20055;-65
2021/10/10 05:11:47;;;;;;;24.83;13.18;;;5.50;87.80;;;;;;5069867;28;20036;-66
2021/10/10 05:14:13;;;;;;;21.17;11.05;;;5.50;87.70;;;;;;5067495;28;20094;-67
2021/10/10 05:16:39;;;;;;;21.83;11.90;;;5.50;87.60;;;;;;5062622;28;20094;-67
2021/10/10 05:19:05;;;;;;;21.80;12.27;;;5.50;87.60;;;;;;5058917;28;20043;-67
2021/10/10 05:21:30;;;;;;;19.50;11.25;;;5.50;87.20;;;;;;5058247;28;20039;-67
2021/10/10 05:23:56;;;;;;;24.38;12.27;;;5.50;87.30;;;;;;5064186;28;20028;-69
2021/10/10 05:26:22;;;;;;;26.70;13.18;;;5.50;87.60;;;;;;5049262;28;20035;-67
2021/10/10 05:28:47;;;;;;;25.10;13.07;;;5.50;87.80;;;;;;5068005;28;20028;-67
2021/10/10 05:31:13;;;;;;;26.83;12.50;;;5.40;87.50;;;;;;5065870;28;20055;-67
2021/10/10 05:33:39;;;;;;;22.02;12.10;;;5.50;87.90;;;;;;5053282;28;20033;-67
2021/10/10 05:36:04;;;;;;;23.25;13.60;;;5.50;88.10;;;;;;5060266;28;20041;-67
2021/10/10 05:38:30;;;;;;;25.25;12.57;;;5.50;87.90;;;;;;5068005;28;20143;-67
2021/10/10 05:40:56;;;;;;;23.27;13.07;;;5.50;88.10;;;;;;5069369;28;20077;-67
2021/10/10 05:43:21;;;;;;;23.08;11.68;;;5.50;88.20;;;;;;5057589;28;20043;-67
2021/10/10 05:45:47;;;;;;;22.35;11.98;;;5.60;88.50;;;;;;5053265;28;20031;-67
2021/10/10 05:48:13;;;;;;;21.63;12.25;;;5.60;88.10;;;;;;5064493;28;20031;-67
2021/10/10 05:50:39;;;;;;;24.92;13.18;;;5.60;88.10;;;;;;5059839;28;20043;-69
2021/10/10 05:53:08;;;;;;;23.77;11.75;;;5.70;89.20;;;;;;5066417;28;20064;-68
2021/10/10 05:55:38;;;;;;;22.45;12.43;;;5.60;88.60;;;;;;5062116;28;20029;-71
2021/10/10 05:58:05;;;;;;;26.05;13.88;;;5.70;88.60;;;;;;5055166;28;20047;-68
2021/10/10 06:00:31;;;;;;;23.10;11.90;;;5.80;88.80;;;;;;5065045;28;20763;-67
2021/10/10 06:02:57;;;;;;;25.02;13.20;;;5.80;88.60;;;;;;5067078;28;20040;-68
2021/10/10 06:05:23;;;;;;;23.20;12.13;;;5.90;88.40;;;;;;5058972;28;20112;-67
2021/10/10 06:07:49;;;;;;;27.50;13.18;;;5.90;88.00;;;;;;5061120;28;20020;-68
2021/10/10 06:10:15;;;;;;;24.55;13.15;;;6.00;87.40;;;;;;5058576;28;20131;-68
2021/10/10 06:12:40;;;;;;;25.73;13.07;;;6.00;87.40;;;;;;5073055;28;20090;-68
2021/10/10 06:15:08;;;;;;;24.63;14.43;;;6.10;86.90;;;;;;5078344;28;20031;-68
2021/10/10 06:17:35;;;;;;;24.38;12.48;;;6.10;86.80;;;;;;5061663;28;20107;-68
2021/10/10 06:20:04;;;;;;;20.45;11.73;;;6.10;86.70;;;;;;5062649;28;20136;-68
2021/10/10 06:22:30;;;;;;;25.80;13.57;;;6.10;86.50;;;;;;5071933;28;20039;-68
2021/10/10 06:24:56;;;;;;;25.30;13.32;;;6.20;86.60;;;;;;5069942;28;20897;-68
2021/10/10 06:27:21;;;;;;;22.23;12.52;;;6.20;86.50;;;;;;5059648;28;20033;-67
2021/10/10 06:29:47;;;;;;;21.52;13.20;;;6.30;86.50;;;;;;5062606;28;20032;-69
2021/10/10 06:32:14;;;;;;;24.52;12.10;;;6.40;86.40;;;;;;5067994;28;20067;-68
2021/10/10 06:34:40;;;;;;;21.92;13.02;;;6.50;86.50;;;;;;5069506;28;20040;-69
2021/10/10 06:37:05;;;;;;;24.83;12.25;;;6.50;86.40;;;;;;5075706;28;20040;-68
2021/10/10 06:39:33;;;;;;;21.98;12.65;;;6.50;86.60;;;;;;5062776;28;20042;-69
2021/10/10 06:41:59;;;;;;;23.50;12.18;;;6.60;86.60;;;;;;5070639;28;20036;-69
2021/10/10 06:44:24;;;;;;;26.17;14.05;;;6.70;86.40;;;;;;5061662;28;20040;-72
2021/10/10 06:46:50;;;;;;;27.08;13.48;;;6.70;86.00;;;;;;5066753;28;20048;-68
2021/10/10 06:49:16;;;;;;;26.30;13.30;;;6.80;85.40;;;;;;5074719;28;20036;-68
2021/10/10 06:51:41;;;;;;;26.98;13.02;;;6.90;85.20;;;;;;5068257;28;20067;-68
2021/10/10 06:54:07;;;;;;;27.38;14.27;;;6.90;84.80;;;;;;5074792;28;20028;-68
2021/10/10 06:56:33;;;;;;;32.60;14.23;;;6.80;83.60;;;;;;5060480;28;20037;-67
2021/10/10 06:58:59;;;;;;;25.35;13.80;;;6.90;83.90;;;;;;5062219;28;20703;-68
2021/10/10 07:01:24;;;;;;;24.95;13.00;;;7.00;84.00;;;;;;5069620;28;20031;-68
2021/10/10 07:03:50;;;;;;;26.55;13.50;;;7.10;83.80;;;;;;5056875;28;20794;-68
2021/10/10 07:06:16;;;;;;;22.63;13.00;;;7.20;83.00;;;;;;5069662;28;20048;-68
2021/10/10 07:08:42;;;;;;;25.77;13.57;;;7.30;82.90;;;;;;5062787;28;20028;-67
2021/10/10 07:11:08;;;;;;;24.38;12.85;;;7.40;82.20;;;;;;5070595;28;20032;-68
2021/10/10 07:13:34;;;;;;;24.60;13.80;;;7.40;81.90;;;;;;5060052;28;20155;-67
2021/10/10 07:15:59;;;;;;;28.70;13.85;;;7.50;82.10;;;;;;5065220;28;20123;-71
2021/10/10 07:18:28;;;;;;;26.38;13.70;;;7.60;82.10;;;;;;5069869;28;20165;-68
2021/10/10 07:26:24;;;;;;;26.23;13.45;;;7.80;80.20;;;;;;5057701;28;20122;-68
2021/10/10 07:28:52;;;;;;;24.80;13.95;;;7.90;80.90;;;;;;5059420;28;20051;-68
2021/10/10 07:31:18;;;;;;;26.00;13.38;;;7.90;81.10;;;;;;5054763;28;20029;-68
2021/10/10 07:33:44;;;;;;;24.40;13.50;;;8.00;80.70;;;;;;5058805;28;20036;-66
2021/10/10 07:36:11;;;;;;;25.00;14.73;;;8.10;80.20;;;;;;5067562;28;20032;-68
2021/10/10 07:38:37;;;;;;;24.08;14.60;;;8.20;80.20;;;;;;5065965;28;20024;-68
2021/10/10 07:41:04;;;;;;;24.90;14.13;;;8.30;79.90;;;;;;5065675;28;20854;-67
2021/10/10 07:43:31;;;;;;;25.42;14.10;;;8.40;78.80;;;;;;5073781;28;20086;-68
2021/10/10 07:46:10;;;;;;;23.48;13.75;;;8.40;79.00;;;;;;5064123;28;20035;-68
2021/10/10 07:48:37;;;;;;;29.02;14.65;;;8.50;78.90;;;;;;5056074;28;20040;-69
2021/10/10 07:51:04;;;;;;;24.30;14.00;;;8.60;77.80;;;;;;5063959;28;20029;-69
2021/10/10 07:53:30;;;;;;;26.92;14.50;;;8.70;78.50;;;;;;5063145;28;20477;-71
2021/10/10 07:55:56;;;;;;;24.10;13.30;;;8.70;78.70;;;;;;5057242;28;20068;-68
2021/10/10 07:58:21;;;;;;;21.48;12.35;;;8.80;78.50;;;;;;5071192;28;20112;-68
2021/10/10 08:00:47;;;;;;;27.55;15.00;;;8.90;77.40;;;;;;5072853;28;20041;-68
2021/10/10 08:03:13;;;;;;;22.92;13.07;;;9.00;77.80;;;;;;5066951;28;20024;-66
2021/10/10 08:05:41;;;;;;;25.27;13.75;;;9.00;75.70;;;;;;5065412;28;20033;-67
2021/10/10 08:08:07;;;;;;;24.73;12.95;;;9.20;76.40;;;;;;5075274;28;20055;-66
2021/10/10 08:10:32;;;;;;;24.95;12.18;;;9.20;75.50;;;;;;5062559;28;20054;-68
2021/10/10 08:12:58;;;;;;;26.42;13.02;;;9.30;74.90;;;;;;5062274;28;20037;-67
2021/10/10 08:15:24;;;;;;;24.48;12.90;;;9.40;76.20;;;;;;5053691;28;20040;-67
2021/10/10 08:17:50;;;;;;;26.20;13.10;;;9.50;76.20;;;;;;5058534;28;20051;-67
2021/10/10 08:20:16;;;;;;;21.48;12.18;;;9.50;74.00;;;;;;5070938;28;20036;-67
2021/10/10 08:22:42;;;;;;;20.10;12.15;;;9.70;73.90;;;;;;5060330;28;20085;-66
2021/10/10 08:25:13;;;;;;;24.02;12.32;;;9.70;71.80;;;;;;5048589;28;20091;-67
2021/10/10 08:27:41;;;;;;;21.42;12.73;;;9.80;71.90;;;;;;5063208;28;20033;-70
2021/10/10 08:30:10;;;;;;;22.80;12.20;;;9.90;72.70;;;;;;5064455;28;20117;-67
2021/10/10 08:32:36;;;;;;;20.42;12.38;;;10.00;72.40;;;;;;5070748;28;20103;-67
2021/10/10 08:35:03;;;;;;;20.95;12.18;;;10.20;72.00;;;;;;5065566;28;20041;-68
2021/10/10 08:37:29;;;;;;;19.73;11.52;;;10.30;71.10;;;;;;5062959;28;21082;-67
2021/10/10 08:39:54;;;;;;;24.63;13.00;;;10.40;69.40;;;;;;5060467;28;20037;-67
2021/10/10 08:42:34;;;;;;;22.35;12.60;;;10.50;67.40;;;;;;5055687;28;20567;-69
2021/10/10 08:45:13;;;;;;;20.58;11.85;;;10.60;68.00;;;;;;5061472;28;20028;-69
2021/10/10 08:47:47;;;;;;;19.73;11.82;;;10.80;67.30;;;;;;5064814;28;20737;-68
2021/10/10 08:50:24;;;;;;;23.52;11.88;;;11.30;66.50;;;;;;5059340;28;20024;-67
2021/10/10 08:52:52;;;;;;;20.52;10.98;;;12.20;62.80;;;;;;5059410;28;20086;-74
2021/10/10 08:55:19;;;;;;;22.92;11.68;;;12.70;59.80;;;;;;5062603;28;20028;-68
2021/10/10 08:57:46;;;;;;;20.33;11.65;;;12.90;58.60;;;;;;5065756;28;20044;-69
2021/10/10 09:03:11;;;;;;;16.23;10.57;;;13.50;57.70;;;;;;5055012;28;20087;-68
2021/10/10 09:05:37;;;;;;;20.38;11.93;;;13.60;59.20;;;;;;5061648;28;20038;-68
2021/10/10 09:08:03;;;;;;;17.95;11.10;;;13.50;57.50;;;;;;5058057;28;20094;-68
2021/10/10 09:10:33;;;;;;;18.45;10.80;;;13.90;58.00;;;;;;5066341;28;20032;-68
2021/10/10 09:13:08;;;;;;;20.13;10.27;;;14.30;57.40;;;;;;5065871;28;20053;-67
2021/10/10 09:15:35;;;;;;;18.00;10.80;;;14.30;56.50;;;;;;5060105;28;20040;-67
2021/10/10 09:18:02;;;;;;;17.02;10.73;;;14.20;57.40;;;;;;5061652;28;20052;-71
2021/10/10 09:20:40;;;;;;;15.68;9.52;;;14.10;58.70;;;;;;5061311;28;20039;-72
2021/10/10 09:23:09;;;;;;;17.85;10.10;;;14.00;57.50;;;;;;5054337;28;20033;-72
2021/10/10 09:25:35;;;;;;;17.60;9.95;;;14.20;58.40;;;;;;5052015;28;20602;-71
2021/10/10 09:28:22;;;;;;;18.33;9.65;;;14.70;56.60;;;;;;5053940;28;20412;-67
2021/10/10 09:30:56;;;;;;;16.83;9.40;;;15.90;53.30;;;;;;5058162;28;20159;-76
2021/10/10 09:33:36;;;;;;;16.85;9.27;;;17.00;50.00;;;;;;5056271;28;20043;-73
2021/10/10 09:36:05;;;;;;;14.82;9.20;;;17.90;48.00;;;;;;5052123;28;20043;-75
2021/10/10 09:38:40;;;;;;;13.95;8.63;;;18.30;46.40;;;;;;5064163;28;20081;-72
2021/10/10 09:41:17;;;;;;;14.95;8.73;;;18.20;45.30;;;;;;5053530;28;20040;-74
2021/10/10 09:44:12;;;;;;;12.80;8.45;;;18.10;45.50;;;;;;5059254;28;20069;-74
2021/10/10 09:46:41;;;;;;;14.73;8.10;;;17.80;46.50;;;;;;5054960;28;20039;-72
2021/10/10 09:49:29;;;;;;;14.52;8.00;;;17.60;47.10;;;;;;5060743;28;20036;-72
2021/10/10 09:52:15;;;;;;;12.82;8.07;;;17.60;48.40;;;;;;5063959;28;20046;-68
2021/10/10 09:54:47;;;;;;;14.38;8.30;;;17.50;48.20;;;;;;5068191;28;20052;-72
2021/10/10 09:57:13;;;;;;;19.10;7.25;;;17.10;45.90;;;;;;5067224;28;20039;-73
2021/10/10 09:59:38;;;;;;;13.43;8.05;;;16.60;47.20;;;;;;5054150;28;20021;-72
2021/10/10 10:02:04;;;;;;;12.77;7.47;;;16.30;46.00;;;;;;5053883;28;20071;-72
2021/10/10 10:04:50;;;;;;;12.13;7.28;;;16.00;46.60;;;;;;5052240;28;20028;-72
2021/10/10 10:07:17;;;;;;;14.37;6.97;;;15.60;46.80;;;;;;5056946;28;20044;-72
2021/10/10 10:09:43;;;;;;;13.95;7.85;;;15.30;48.90;;;;;;5061855;28;20090;-72
2021/10/10 10:12:09;;;;;;;14.95;8.02;;;15.20;48.40;;;;;;5052860;28;20024;-72
2021/10/10 10:14:35;;;;;;;13.68;7.88;;;15.00;49.80;;;;;;5055497;28;20040;-72
2021/10/10 10:17:02;;;;;;;16.33;7.80;;;15.00;50.50;;;;;;5058366;28;20043;-74
2021/10/10 10:19:28;;;;;;;14.55;8.05;;;14.80;50.00;;;;;;5058354;28;20055;-72
2021/10/10 10:21:56;;;;;;;15.50;8.23;;;14.60;50.50;;;;;;5062727;28;20432;-74
2021/10/10 10:24:23;;;;;;;15.30;8.40;;;14.60;50.70;;;;;;5066635;28;20039;-74
2021/10/10 10:26:50;;;;;;;14.63;7.68;;;14.60;51.20;;;;;;5057147;28;20044;-73
2021/10/10 10:29:29;;;;;;;15.00;8.25;;;14.50;51.80;;;;;;5064644;28;20028;-71
2021/10/10 10:31:58;;;;;;;14.77;7.22;;;14.50;51.30;;;;;;5055492;28;20040;-75
2021/10/10 10:34:28;;;;;;;10.45;6.30;;;14.60;49.30;;;;;;5060136;28;20043;-75
2021/10/10 10:37:04;;;;;;;13.98;6.88;;;14.50;49.60;;;;;;5054527;28;20033;-75
2021/10/10 10:39:37;;;;;;;13.38;6.18;;;14.50;50.10;;;;;;5064727;28;20033;-75
2021/10/10 10:42:13;;;;;;;10.07;6.53;;;14.50;51.30;;;;;;5051281;28;20122;-75
2021/10/10 10:44:40;;;;;;;13.23;6.35;;;14.60;48.30;;;;;;5063176;28;20024;-74
2021/10/10 10:47:29;;;;;;;13.00;6.20;;;14.60;48.50;;;;;;5067867;28;20032;-76
2021/10/10 10:49:59;;;;;;;15.02;6.22;;;14.60;47.20;;;;;;5059282;28;20131;-76
2021/10/10 10:52:39;;;;;;;13.63;6.45;;;14.60;48.80;;;;;;5053118;28;20087;-77
2021/10/10 10:55:24;;;;;;;10.82;6.40;;;14.70;49.30;;;;;;5065708;28;20043;-72
2021/10/10 10:57:56;;;;;;;13.33;6.27;;;14.60;47.80;;;;;;5050702;28;20037;-72
2021/10/10 11:00:26;;;;;;;16.67;6.32;;;14.60;48.70;;;;;;5048782;28;20117;-81
2021/10/10 11:02:58;;;;;;;12.23;6.20;;;14.70;49.90;;;;;;5047555;28;20121;-68
2021/10/10 11:05:33;;;;;;;12.95;5.78;;;14.70;49.90;;;;;;5061144;28;20143;-70
2021/10/10 11:08:09;;;;;;;12.25;4.68;;;14.70;46.90;;;;;;5063343;28;20024;-71
2021/10/10 11:10:37;;;;;;;10.73;5.65;;;14.70;49.50;;;;;;5055101;28;20405;-71
2021/10/10 11:13:06;;;;;;;13.07;6.00;;;14.80;47.60;;;;;;5053353;28;20042;-67
2021/10/10 11:15:57;;;;;;;15.38;6.05;;;14.80;48.60;;;;;;5051955;28;20028;-69
2021/10/10 11:18:27;;;;;;;8.63;5.82;;;14.80;46.60;;;;;;5058555;28;20043;-68
2021/10/10 11:21:02;;;;;;;11.73;5.97;;;14.70;47.30;;;;;;5060507;28;20043;-68
2021/10/10 11:23:28;;;;;;;10.07;5.80;;;14.70;47.80;;;;;;5056126;28;20139;-70
2021/10/10 11:25:56;;;;;;;11.82;5.60;;;14.70;48.60;;;;;;5060973;28;20020;-67
2021/10/10 11:28:44;;;;;;;9.75;5.63;;;14.70;49.10;;;;;;5055710;28;20093;-69
2021/10/10 11:31:11;;;;;;;16.17;6.00;;;14.90;49.10;;;;;;5049664;28;20037;-70
2021/10/10 11:33:46;;;;;;;12.02;6.65;;;14.90;47.20;;;;;;5055738;28;20040;-70
2021/10/10 11:36:13;;;;;;;11.13;5.90;;;15.00;47.40;;;;;;5059270;28;20500;-69
2021/10/10 11:38:50;;;;;;;11.18;6.18;;;15.00;47.00;;;;;;5056454;28;20477;-69
2021/10/10 11:41:17;;;;;;;10.27;6.07;;;15.00;48.60;;;;;;5063840;28;20040;-70
2021/10/10 11:44:04;;;;;;;13.10;6.00;;;15.10;48.20;;;;;;5055504;28;20033;-72
2021/10/10 11:46:50;;;;;;;11.13;6.03;;;15.10;47.90;;;;;;5053249;28;20021;-70
2021/10/10 11:49:42;;;;;;;15.05;6.78;;;15.10;46.20;;;;;;5059821;28;20712;-69
2021/10/10 11:52:17;;;;;;;12.95;5.60;;;15.10;46.60;;;;;;5057091;28;20735;-69
2021/10/10 11:54:45;;;;;;;13.20;6.50;;;15.20;47.20;;;;;;5057169;28;20120;-69
2021/10/10 11:57:12;;;;;;;10.07;5.60;;;15.20;47.60;;;;;;5050632;28;20074;-69
2021/10/10 11:59:57;;;;;;;13.73;5.85;;;15.30;47.30;;;;;;5050907;28;20036;-69
2021/10/10 12:02:35;;;;;;;10.70;6.03;;;15.20;46.00;;;;;;5060994;28;20040;-69
2021/10/10 12:05:22;;;;;;;10.45;5.85;;;15.10;46.30;;;;;;5058525;28;20079;-70
2021/10/10 12:07:49;;;;;;;9.60;5.47;;;15.20;46.30;;;;;;5059419;28;20133;-67
2021/10/10 12:10:18;;;;;;;9.18;5.70;;;15.30;45.90;;;;;;5056831;28;20028;-69
2021/10/10 12:12:45;;;;;;;14.77;5.50;;;15.30;46.90;;;;;;5063536;28;20039;-70
2021/10/10 12:15:12;;;;;;;9.20;5.88;;;15.40;47.20;;;;;;5062096;28;20048;-69
2021/10/10 12:17:48;;;;;;;10.48;5.55;;;15.50;47.00;;;;;;5070534;28;20180;-69
2021/10/10 12:20:16;;;;;;;;;;;15.50;47.40;;;;;;5076054;28;20626;-67
2021/10/10 12:22:54;;;;;;;12.07;5.07;;;15.60;46.30;;;;;;5064664;28;19938;-70
2021/10/10 12:25:25;;;;;;;11.38;5.45;;;15.40;45.50;;;;;;5064621;28;20033;-69
2021/10/10 12:28:08;;;;;;;7.97;4.75;;;15.50;46.90;;;;;;5061311;28;20792;-69
2021/10/10 12:30:40;;;;;;;9.30;4.53;;;15.60;46.50;;;;;;5061359;28;20109;-70
2021/10/10 12:33:22;;;;;;;12.20;5.90;;;15.60;47.30;;;;;;5065229;28;20638;-69
2021/10/10 12:36:16;;;;;;;9.38;5.50;;;15.50;44.30;;;;;;5071996;28;20035;-67
2021/10/10 12:38:43;;;;;;;11.40;5.50;;;15.60;47.00;;;;;;5077675;28;20044;-69
2021/10/10 12:41:21;;;;;;;9.10;4.97;;;15.60;45.60;;;;;;5060473;28;20048;-69
2021/10/10 12:43:55;;;;;;;8.40;5.13;;;15.60;46.80;;;;;;5068215;28;20043;-69
2021/10/10 12:46:24;;;;;;;9.25;5.25;;;15.70;46.90;;;;;;5061614;28;20047;-69
2021/10/10 12:48:57;;;;;;;8.45;5.15;;;15.80;46.10;;;;;;5060382;28;20032;-69
2021/10/10 12:51:22;;;;;;;13.90;5.72;;;15.80;45.50;;;;;;5074774;28;20023;-69
2021/10/10 12:53:48;;;;;;;11.65;5.55;;;15.70;43.50;;;;;;5060835;28;20416;-69
2021/10/10 12:56:24;;;;;;;9.63;5.72;;;15.70;43.90;;;;;;5057056;28;20310;-69